^^
Meteo Knjazevac Station Historical Data
Daily Summary for February 28, 2021 Units:  Both    English   Metric
Daily Weekly Monthly Yearly Custom
  High: Low: Average:
Temperature: 61.5 °F /  16.4 °C 59.9 °F /  15.5 °C 60.9 °F /  16.1 °C
Dew Point: 59.1 °F /  15.1 °C 58 °F /  14.4 °C 58.5 °F /  14.7 °C
Humidity: 94% 89% 92%
Wind Speed: 5mph /  8km/h - 1.5mph /  2.4km/h
Wind Gust: 12mph /  19.3km/h - -
Wind- - SSW
Pressure: 30.12 in /  1019.9 hPa 30.11 in /  1019.5 hPa -
Precipitation: 0.00 in /  0 mm    
Historical Graphs
 
 
Tabular Data for February 28, 2021
Time Temperature Dew Point Pressure Wind Wind Speed Wind Gust Humidity Rainfall Rate (Hourly) solar Conditions
00:00 61 °F /  16.1 °C 58.3 °F /  14.6 °C 30.12in /  1019.9hPa Calm   7mph /  11.3km/h 91% 0.00in /  0mm 0 W/m2
00:10 61 °F /  16.1 °C 58 °F /  14.4 °C 30.12in /  1019.9hPa East 5mph /  8km/h 8mph /  12.9km/h 90% 0.00in /  0mm 0 W/m2
00:20 61.2 °F /  16.2 °C 58.5 °F /  14.7 °C 30.12in /  1019.9hPa ESE 2mph /  3.2km/h 5mph /  8km/h 91% 0.00in /  0mm 0 W/m2
00:30 61.2 °F /  16.2 °C 58.2 °F /  14.6 °C 30.12in /  1019.9hPa SE 1mph /  1.6km/h 8mph /  12.9km/h 90% 0.00in /  0mm 0 W/m2
00:40 61.2 °F /  16.2 °C 58.2 °F /  14.6 °C 30.12in /  1019.9hPa ESE 5mph /  8km/h 12mph /  19.3km/h 90% 0.00in /  0mm 0 W/m2
00:50 61.3 °F /  16.3 °C 58.1 °F /  14.5 °C 30.12in /  1019.9hPa Calm   11mph /  17.7km/h 89% 0.00in /  0mm 0 W/m2
01:00 61.3 °F /  16.3 °C 58.1 °F /  14.5 °C 30.12in /  1019.9hPa East 5mph /  8km/h 7mph /  11.3km/h 89% 0.00in /  0mm 0 W/m2
01:10 61.5 °F /  16.4 °C 58.2 °F /  14.6 °C 30.12in /  1019.9hPa East 1mph /  1.6km/h 6mph /  9.7km/h 89% 0.00in /  0mm 0 W/m2
01:20 61.5 °F /  16.4 °C 58.6 °F /  14.8 °C 30.12in /  1019.9hPa South 1mph /  1.6km/h 6mph /  9.7km/h 90% 0.00in /  0mm 0 W/m2
01:30 61.5 °F /  16.4 °C 58.9 °F /  14.9 °C 30.12in /  1019.9hPa South 1mph /  1.6km/h 2mph /  3.2km/h 91% 0.00in /  0mm 0 W/m2
01:40 61.2 °F /  16.2 °C 59.1 °F /  15.1 °C 30.12in /  1019.9hPa SW 2mph /  3.2km/h 3mph /  4.8km/h 93% 0.00in /  0mm 0 W/m2
01:50 61 °F /  16.1 °C 58.9 °F /  14.9 °C 30.12in /  1019.9hPa Calm   3mph /  4.8km/h 93% 0.00in /  0mm 0 W/m2
02:00 60.8 °F /  16 °C 58.8 °F /  14.9 °C 30.12in /  1019.9hPa Calm   1mph /  1.6km/h 93% 0.00in /  0mm 0 W/m2
02:10 60.8 °F /  16 °C 59.1 °F /  15.1 °C 30.11in /  1019.5hPa NW 1mph /  1.6km/h 2mph /  3.2km/h 94% 0.00in /  0mm 0 W/m2
02:20 60.6 °F /  15.9 °C 58.6 °F /  14.8 °C 30.11in /  1019.5hPa NNW 1mph /  1.6km/h 3mph /  4.8km/h 93% 0.00in /  0mm 0 W/m2
02:30 60.6 °F /  15.9 °C 58.9 °F /  14.9 °C 30.11in /  1019.5hPa NNW 2mph /  3.2km/h 2mph /  3.2km/h 94% 0.00in /  0mm 0 W/m2
02:40 60.4 °F /  15.8 °C 58.7 °F /  14.8 °C 30.11in /  1019.5hPa NNW 1mph /  1.6km/h 4mph /  6.4km/h 94% 0.00in /  0mm 0 W/m2
02:50 60.4 °F /  15.8 °C 58.7 °F /  14.8 °C 30.11in /  1019.5hPa Calm   5mph /  8km/h 94% 0.00in /  0mm 0 W/m2
03:00 60.3 °F /  15.7 °C 58.5 °F /  14.7 °C 30.11in /  1019.5hPa Calm   2mph /  3.2km/h 94% 0.00in /  0mm 0 W/m2
03:10 59.9 °F /  15.5 °C 58.2 °F /  14.6 °C 30.11in /  1019.5hPa SW 1mph /  1.6km/h 2mph /  3.2km/h 94% 0.00in /  0mm 0 W/m2
Knjazevac, Serbia
Compliments of Weather Underground - 2 mb